createdAt,value
2022-12-01T06:49:00.512Z,102064.38
2022-12-01T06:51:28.273Z,102060.16
2022-12-01T06:53:58.677Z,102057.53
2022-12-01T06:56:31.249Z,102070.81
2022-12-01T06:58:59.152Z,102063.00
2022-12-01T07:01:27.094Z,102057.06
2022-12-01T07:03:54.914Z,102065.78
2022-12-01T07:06:24.104Z,102075.34
2022-12-01T07:08:53.858Z,102076.19
2022-12-01T07:11:21.725Z,102071.03
2022-12-01T07:13:49.444Z,102073.72
2022-12-01T07:16:17.218Z,102072.06
2022-12-01T07:18:45.227Z,102073.78
2022-12-01T07:21:14.401Z,102056.34
2022-12-01T07:23:43.760Z,102063.59
2022-12-01T07:26:13.467Z,102056.69
2022-12-01T07:28:41.423Z,102056.84
2022-12-01T07:31:10.730Z,102058.69
2022-12-01T07:33:38.998Z,102058.69
2022-12-01T07:36:07.800Z,102054.38
2022-12-01T07:38:36.283Z,102056.16
2022-12-01T07:41:07.169Z,102055.22
2022-12-01T07:43:35.159Z,102048.44
2022-12-01T07:46:07.872Z,102055.22
2022-12-01T07:48:36.392Z,102063.09
2022-12-01T07:51:04.526Z,102056.34
2022-12-01T07:53:33.479Z,102059.84
2022-12-01T07:56:06.907Z,102071.03
2022-12-01T07:58:39.046Z,102070.06
2022-12-01T08:01:10.331Z,102069.31
2022-12-01T08:03:38.641Z,102067.88
2022-12-01T08:06:07.341Z,102070.34
2022-12-01T08:08:37.910Z,102076.84
2022-12-01T08:11:08.172Z,102071.63
2022-12-01T08:13:35.895Z,102070.50
2022-12-01T08:16:06.451Z,102074.75
2022-12-01T08:18:34.752Z,102076.59
2022-12-01T08:21:02.615Z,102072.13
2022-12-01T08:23:30.307Z,102071.31
2022-12-01T08:26:00.999Z,102068.75
2022-12-01T08:28:29.187Z,102071.50
2022-12-01T08:30:57.011Z,102074.09
2022-12-01T08:33:26.210Z,102064.75
2022-12-01T08:41:09.965Z,102053.63
2022-12-01T08:46:26.646Z,102053.00
2022-12-01T08:48:54.336Z,102048.66
2022-12-01T08:51:21.973Z,102051.97
2022-12-01T08:53:50.253Z,102045.97
2022-12-01T08:56:21.971Z,102051.06
2022-12-01T08:58:49.293Z,102051.06
2022-12-01T09:01:18.124Z,102051.13
2022-12-01T09:03:46.085Z,102044.88
2022-12-01T09:06:16.719Z,102044.81
2022-12-01T09:08:44.682Z,102048.22
2022-12-01T09:11:15.344Z,102056.16
2022-12-01T09:13:49.877Z,102050.06
2022-12-01T09:16:20.765Z,102043.91
2022-12-01T09:18:49.032Z,102047.50
2022-12-01T09:21:18.685Z,102038.25
2022-12-01T09:23:46.823Z,102037.44
2022-12-01T09:26:15.242Z,102039.78
2022-12-01T09:28:44.730Z,102033.63
2022-12-01T09:31:14.144Z,102032.53
2022-12-01T09:33:42.385Z,102023.63
2022-12-01T09:36:11.205Z,102026.38
2022-12-01T09:38:39.341Z,102029.84
2022-12-01T09:41:13.295Z,102024.75
2022-12-01T09:43:43.812Z,102021.19
2022-12-01T09:46:22.252Z,101999.25
2022-12-01T09:48:52.689Z,102014.94
2022-12-01T09:51:24.119Z,101991.41
2022-12-01T09:53:54.629Z,101996.75
2022-12-01T09:56:24.668Z,101997.56
2022-12-01T09:58:54.220Z,102001.88
2022-12-01T10:01:31.368Z,101996.69
2022-12-01T10:04:04.979Z,101996.81
2022-12-01T10:06:38.893Z,101996.00
2022-12-01T10:09:18.202Z,101991.75
2022-12-01T10:11:47.534Z,101989.22
2022-12-01T10:14:20.143Z,101982.22
2022-12-01T10:17:01.297Z,101981.34
2022-12-01T10:19:36.090Z,101986.72
2022-12-01T10:22:24.622Z,101981.59
2022-12-01T10:24:56.148Z,101984.97
2022-12-01T10:27:40.168Z,101977.19
2022-12-01T10:30:12.619Z,101975.16
2022-12-01T10:32:51.385Z,101977.94
2022-12-01T10:35:21.682Z,101981.41
2022-12-01T10:37:54.983Z,101972.81
2022-12-01T10:40:23.191Z,101979.72
2022-12-01T10:42:51.369Z,101979.09
2022-12-01T10:45:23.281Z,101969.53
2022-12-01T16:24:06.666Z,101920.06
2022-12-01T16:26:34.542Z,101931.25
2022-12-01T16:29:02.138Z,101926.97
2022-12-01T16:31:30.254Z,101928.59
2022-12-01T16:34:13.982Z,101925.06
2022-12-01T16:36:46.630Z,101943.19
2022-12-01T16:39:16.157Z,101933.72
2022-12-01T16:41:43.960Z,101938.09
2022-12-01T16:44:28.198Z,101922.44
2022-12-01T16:46:56.640Z,101913.75
2022-12-01T16:49:24.356Z,101920.81
2022-12-01T16:51:56.814Z,101913.88
2022-12-01T16:54:26.626Z,101912.22
2022-12-01T16:56:54.257Z,101925.13
2022-12-01T16:59:21.824Z,101926.97
2022-12-01T17:01:49.624Z,101925.13
2022-12-01T17:04:17.278Z,101926.03
2022-12-01T17:06:44.918Z,101932.09
2022-12-01T17:09:13.169Z,101931.25
2022-12-01T17:11:42.151Z,101920.88
2022-12-01T17:14:10.297Z,101925.94
2022-12-01T17:16:38.536Z,101921.63
2022-12-01T17:19:06.271Z,101931.91
2022-12-01T17:21:33.899Z,101936.25
2022-12-01T17:24:01.631Z,101922.53
2022-12-01T17:26:29.762Z,101924.09
2022-12-01T17:28:58.891Z,101931.06
2022-12-01T17:31:26.952Z,101925.88
2022-12-01T17:33:54.782Z,101925.88
2022-12-01T17:36:22.763Z,101931.00
2022-12-01T17:38:50.675Z,101934.47
2022-12-01T17:41:19.799Z,101938.69
2022-12-01T17:43:47.919Z,101918.59
2022-12-01T17:46:17.563Z,101950.78
2022-12-01T17:48:46.945Z,101944.69
2022-12-01T17:51:15.432Z,101934.34
2022-12-01T17:53:43.222Z,101937.84
2022-12-01T17:56:13.084Z,101942.19
2022-12-01T17:58:41.651Z,101931.00
2022-12-01T18:01:14.009Z,101924.97
2022-12-01T18:03:43.726Z,101920.66
2022-12-01T18:06:12.006Z,101934.56
2022-12-01T18:08:40.299Z,101927.59
2022-12-01T18:11:10.279Z,101933.63
2022-12-01T18:13:40.907Z,101923.31
2022-12-01T18:16:09.780Z,101934.50
2022-12-01T18:18:38.375Z,101932.78
2022-12-01T19:39:26.799Z,101940.72
2022-12-01T19:41:56.127Z,101925.19
2022-12-01T19:44:23.770Z,101925.25
2022-12-01T19:46:51.599Z,101927.84
2022-12-01T19:49:19.352Z,101919.22
2022-12-01T19:51:46.972Z,101916.63
2022-12-01T19:54:17.088Z,101914.84
2022-12-01T19:56:46.363Z,101907.03
2022-12-01T19:59:13.952Z,101916.63
2022-12-01T20:01:41.809Z,101916.69
2022-12-01T20:04:09.482Z,101916.72
2022-12-01T20:06:37.638Z,101920.19
2022-12-01T20:09:07.441Z,101910.69
2022-12-01T20:11:35.911Z,101900.19
2022-12-01T20:14:06.137Z,101917.56
2022-12-01T20:16:34.122Z,101917.56
2022-12-01T20:19:03.040Z,101914.91
2022-12-01T20:21:32.846Z,101923.47
2022-12-01T20:24:02.656Z,101920.88
2022-12-01T20:26:33.723Z,101917.38
2022-12-01T20:29:04.566Z,101921.63
2022-12-01T20:31:34.500Z,101921.69
2022-12-01T20:34:05.174Z,101913.13
2022-12-01T20:36:32.861Z,101916.50
2022-12-01T20:39:00.610Z,101907.78
2022-12-01T20:41:28.230Z,101911.28
2022-12-01T20:43:55.855Z,101913.81
2022-12-01T20:46:23.976Z,101908.56
2022-12-01T20:48:53.455Z,101902.53
2022-12-01T20:51:21.081Z,101901.63
2022-12-01T20:54:12.298Z,101892.19
2022-12-01T20:56:37.303Z,101890.47
2022-12-01T20:59:04.885Z,101884.28
2022-12-01T21:01:32.775Z,101886.06
2022-12-01T21:04:02.147Z,101886.03
2022-12-01T21:06:30.078Z,101896.38
2022-12-01T21:08:57.767Z,101890.25
2022-12-01T21:11:28.439Z,101886.63
2022-12-01T21:13:56.226Z,101885.06
2022-12-01T21:16:32.601Z,101882.44
2022-12-01T21:19:09.496Z,101884.97
2022-12-01T21:21:40.487Z,101885.13
2022-12-01T21:24:16.009Z,101878.06
2022-12-01T21:26:48.747Z,101876.28
2022-12-01T21:29:20.137Z,101869.38
2022-12-01T21:31:50.827Z,101877.03
2022-12-01T21:34:22.749Z,101873.63
2022-12-01T21:36:51.966Z,101870.84
2022-12-01T21:39:21.751Z,101879.50
2022-12-01T21:41:50.547Z,101881.19
2022-12-01T21:44:20.338Z,101881.13
2022-12-01T21:46:53.213Z,101870.66
2022-12-01T21:49:32.773Z,101880.94
2022-12-01T21:52:00.693Z,101876.56
2022-12-01T21:54:29.230Z,101871.22
2022-12-01T21:56:58.635Z,101876.47
2022-12-01T21:59:26.211Z,101867.84
2022-12-01T22:01:55.533Z,101855.59
2022-12-01T22:04:29.368Z,101863.63
2022-12-01T22:06:58.043Z,101864.56
2022-12-01T22:09:27.723Z,101852.44
2022-12-01T22:11:57.548Z,101859.69
2022-12-01T22:14:29.166Z,101864.91
2022-12-01T22:17:01.397Z,101858.81
2022-12-01T22:19:32.556Z,101858.00
2022-12-01T22:22:02.483Z,101869.31
2022-12-01T22:24:41.062Z,101860.78
2022-12-01T22:27:30.125Z,101859.22
2022-12-01T22:30:00.718Z,101869.44
2022-12-01T22:32:40.567Z,101873.75
2022-12-01T22:35:31.580Z,101874.56
2022-12-01T22:38:21.511Z,101883.31
2022-12-01T22:40:56.635Z,101879.72
2022-12-01T22:43:42.343Z,101885.88
2022-12-01T22:46:30.850Z,101887.59
2022-12-01T22:49:00.982Z,101879.81
2022-12-01T22:51:36.642Z,101880.69
2022-12-01T22:54:24.849Z,101880.72
2022-12-01T22:57:00.740Z,101877.44
2022-12-01T22:59:32.130Z,101880.88
2022-12-01T23:02:02.077Z,101881.75
2022-12-01T23:04:33.599Z,101879.09
2022-12-01T23:07:09.335Z,101870.69
2022-12-01T23:09:39.904Z,101877.53
2022-12-01T23:12:28.862Z,101871.50
2022-12-01T23:14:59.727Z,101861.16
2022-12-01T23:17:29.029Z,101855.13
2022-12-01T23:20:22.382Z,101862.19
2022-12-01T23:22:53.398Z,101855.28
